Time;durP1;ratioP1;P1;durP2;ratioP2;P2;SDS_P1;SDS_P2;PMS_P1;PMS_P2;Temp;Humidity;BMP_temperature;BMP_pressure;BME280_temperature;BME280_humidity;BME280_pressure;Samples;Min_cycle;Max_cycle;Signal;HPM_P1;HPM_P2
2023/03/03 00:01:45;;;;;;;;;54.75;41.50;;;;;6.70;46.11;99552.19;5046976;28;8833;-76
2023/03/03 00:04:13;;;;;;;;;48.00;40.75;;;;;6.74;46.30;99550.44;5047448;28;8907;-77
2023/03/03 00:06:44;;;;;;;;;37.50;36.00;;;;;6.75;46.09;99554.81;5063792;28;8861;-77
2023/03/03 00:09:13;;;;;;;;;57.50;43.75;;;;;6.80;45.73;99551.28;5048194;28;8895;-79
2023/03/03 00:11:42;;;;;;;;;45.50;41.50;;;;;6.77;45.73;99543.47;5057088;28;9644;-78
2023/03/03 00:14:22;;;;;;;;;49.75;43.25;;;;;6.81;45.36;99545.19;5048468;28;8861;-76
2023/03/03 00:16:52;;;;;;;;;45.25;36.75;;;;;6.71;46.13;99544.38;5048494;28;9570;-77
2023/03/03 00:19:22;;;;;;;;;44.75;39.50;;;;;6.72;45.29;99545.25;5048631;28;8880;-80
2023/03/03 00:21:51;;;;;;;;;54.50;43.50;;;;;6.73;45.90;99546.97;5048821;28;8857;-79
2023/03/03 00:24:22;;;;;;;;;59.25;47.25;;;;;6.81;45.09;99553.00;5047228;28;8868;-77
2023/03/03 00:26:54;;;;;;;;;48.25;41.25;;;;;6.75;46.15;99545.22;5047061;28;8856;-77
2023/03/03 00:29:35;;;;;;;;;51.25;40.50;;;;;6.84;45.19;99541.69;5047901;28;8911;-79
2023/03/03 00:32:22;;;;;;;;;51.25;44.00;;;;;6.94;45.41;99542.53;5048002;28;8879;-77
2023/03/03 00:34:53;;;;;;;;;44.00;39.75;;;;;6.55;46.22;99534.88;5063129;28;8987;-77
2023/03/03 00:37:34;;;;;;;;;54.25;42.50;;;;;6.66;45.84;99521.75;5046579;28;8945;-77
2023/03/03 00:40:19;;;;;;;;;58.25;45.25;;;;;6.75;46.01;99528.69;5046858;28;8877;-77
2023/03/03 00:42:51;;;;;;;;;58.75;45.00;;;;;6.47;46.41;99524.47;5048113;28;8979;-78
2023/03/03 00:45:31;;;;;;;;;48.50;42.50;;;;;6.50;45.81;99521.84;5047173;28;8856;-77
2023/03/03 00:48:19;;;;;;;;;50.00;40.25;;;;;6.43;46.71;99509.69;5031691;28;8930;-80
2023/03/03 00:50:49;;;;;;;;;55.25;46.00;;;;;6.43;46.33;99511.44;4993172;28;8902;-78
2023/03/03 00:53:19;;;;;;;;;56.75;44.75;;;;;6.28;47.06;99501.91;5043637;28;8915;-79
2023/03/03 00:55:49;;;;;;;;;49.00;42.25;;;;;6.32;46.12;99509.75;5043239;28;8867;-79
2023/03/03 00:58:20;;;;;;;;;56.00;45.00;;;;;6.28;46.27;99507.13;5026796;28;8882;-78
2023/03/03 01:00:51;;;;;;;;;54.00;43.75;;;;;6.11;46.64;99497.66;5047937;28;8848;-78
2023/03/03 01:03:27;;;;;;;;;56.00;46.25;;;;;6.05;47.39;99502.00;5043164;28;8867;-77
2023/03/03 01:05:56;;;;;;;;;60.25;48.00;;;;;5.79;48.10;99496.84;5025450;28;8890;-77
2023/03/03 01:08:25;;;;;;;;;55.75;45.25;;;;;5.78;47.70;99498.59;5044181;28;8841;-77
2023/03/03 01:10:57;;;;;;;;;61.00;47.25;;;;;5.75;47.85;99501.22;5046635;28;8872;-79
2023/03/03 01:13:28;;;;;;;;;53.75;43.75;;;;;5.75;48.13;99495.13;5046760;28;8912;-77
2023/03/03 01:15:58;;;;;;;;;50.50;41.75;;;;;5.68;48.44;99489.94;5029655;28;8857;-76
2023/03/03 01:18:30;;;;;;;;;54.25;42.75;;;;;5.82;47.96;99494.25;5044037;28;8853;-77
2023/03/03 01:20:58;;;;;;;;;57.75;46.00;;;;;5.84;47.38;99500.34;5045009;28;8911;-78
2023/03/03 01:23:27;;;;;;;;;56.75;46.50;;;;;5.76;48.26;99496.88;5049860;28;8906;-77
2023/03/03 01:25:56;;;;;;;;;51.00;43.50;;;;;5.89;48.22;99491.63;5026533;28;8871;-78
2023/03/03 01:28:25;;;;;;;;;57.25;46.00;;;;;5.83;48.39;99482.94;5008899;28;8868;-78
2023/03/03 01:30:54;;;;;;;;;53.75;43.25;;;;;6.01;47.72;99484.63;5059412;28;8878;-76
2023/03/03 01:33:23;;;;;;;;;58.50;46.00;;;;;6.04;47.66;99485.50;5042878;28;8856;-78
2023/03/03 01:35:53;;;;;;;;;57.75;45.75;;;;;6.20;47.33;99488.03;5064783;28;8945;-76
2023/03/03 01:38:22;;;;;;;;;62.75;50.25;;;;;6.04;47.59;99492.44;5008909;28;8871;-78
2023/03/03 01:40:55;;;;;;;;;58.00;47.75;;;;;6.13;48.13;99489.78;5042479;28;8870;-77
2023/03/03 01:43:26;;;;;;;;;59.00;45.50;;;;;6.25;47.25;99487.16;4992397;28;8867;-78
2023/03/03 01:46:35;;;;;;;;;57.75;47.75;;;;;6.32;48.06;99477.53;5066273;28;8966;-78
2023/03/03 01:49:11;;;;;;;;;55.25;43.50;;;;;6.07;47.95;99484.59;5048001;28;8851;-78
2023/03/03 01:51:51;;;;;;;;;57.50;45.25;;;;;6.00;48.25;99470.72;5004430;28;10032;-77
2023/03/03 01:54:25;;;;;;;;;59.75;45.25;;;;;5.79;49.22;99471.63;5015646;28;8850;-75
2023/03/03 01:56:58;;;;;;;;;60.75;46.25;;;;;5.78;49.45;99472.53;5048422;28;8850;-77
2023/03/03 01:59:32;;;;;;;;;57.50;47.00;;;;;5.78;49.46;99469.91;5031450;28;8862;-78
2023/03/03 02:02:00;;;;;;;;;54.00;44.50;;;;;5.68;49.29;99468.19;5037234;28;8871;-78
2023/03/03 02:04:30;;;;;;;;;52.25;43.25;;;;;5.47;50.15;99463.88;5019140;28;8852;-76
2023/03/03 02:07:03;;;;;;;;;50.50;43.00;;;;;5.47;50.32;99464.78;5035345;28;8934;-77
2023/03/03 02:09:41;;;;;;;;;53.50;43.50;;;;;5.48;50.43;99463.88;5048668;28;8840;-76
2023/03/03 02:12:14;;;;;;;;;57.25;46.00;;;;;5.51;50.07;99456.06;5051312;28;8848;-77
2023/03/03 02:14:42;;;;;;;;;60.25;49.75;;;;;5.37;50.41;99463.03;5067993;28;8848;-76
2023/03/03 02:17:11;;;;;;;;;60.50;46.00;;;;;5.45;50.40;99463.91;5034645;28;8876;-77
2023/03/03 02:19:51;;;;;;;;;60.00;45.75;;;;;5.27;50.80;99459.53;5051436;28;8847;-78
2023/03/03 02:22:30;;;;;;;;;57.75;43.25;;;;;5.21;51.09;99456.03;5068066;28;8984;-79
2023/03/03 02:25:02;;;;;;;;;63.50;48.00;;;;;5.24;50.91;99462.13;5012596;28;8932;-78
2023/03/03 02:27:33;;;;;;;;;51.25;43.00;;;;;5.31;50.50;99460.44;5045467;28;8871;-77
2023/03/03 02:30:13;;;;;;;;;60.75;47.75;;;;;5.34;50.51;99458.69;5046357;28;8843;-76
2023/03/03 02:32:42;;;;;;;;;58.50;46.75;;;;;5.16;50.77;99463.88;5060971;28;8862;-77
2023/03/03 02:35:30;;;;;;;;;50.00;42.25;;;;;5.34;50.50;99465.66;5064859;28;8860;-76
2023/03/03 02:38:09;;;;;;;;;58.25;45.50;;;;;5.49;49.85;99462.13;5050338;28;8934;-78
2023/03/03 02:40:45;;;;;;;;;45.00;39.25;;;;;5.58;49.26;99462.13;5048759;28;8857;-77
2023/03/03 02:43:21;;;;;;;;;52.25;42.75;;;;;5.64;49.07;99462.13;5050403;28;8853;-77
2023/03/03 02:45:50;;;;;;;;;58.25;44.25;;;;;5.48;49.30;99465.63;5065907;28;8837;-78
2023/03/03 02:48:19;;;;;;;;;47.50;42.00;;;;;5.69;48.81;99464.72;5050482;28;8927;-77
2023/03/03 02:50:48;;;;;;;;;51.00;43.50;;;;;5.66;48.99;99465.59;5049054;28;8861;-77
2023/03/03 02:53:16;;;;;;;;;33.00;27.25;;;;;5.73;48.53;99459.47;5062486;28;9619;-79
2023/03/03 02:55:45;;;;;;;;;55.25;42.00;;;;;5.86;48.56;99456.84;5070987;28;8854;-79
2023/03/03 02:58:17;;;;;;;;;45.25;42.00;;;;;5.87;48.35;99459.47;5073595;28;8867;-79
2023/03/03 03:00:47;;;;;;;;;42.25;39.25;;;;;5.81;48.46;99458.59;5082557;28;8860;-76
2023/03/03 03:03:19;;;;;;;;;44.50;38.75;;;;;5.91;47.87;99455.97;5048420;28;8865;-78
2023/03/03 03:05:49;;;;;;;;;44.75;39.75;;;;;6.02;47.91;99449.81;5062822;28;8847;-77
2023/03/03 03:08:20;;;;;;;;;51.00;40.50;;;;;6.12;47.88;99451.53;5061978;28;8840;-78
2023/03/03 03:10:49;;;;;;;;;56.25;42.75;;;;;6.22;48.00;99448.00;5030565;28;8851;-76
2023/03/03 03:13:20;;;;;;;;;41.00;38.00;;;;;6.26;47.21;99448.84;5032298;28;8993;-77
2023/03/03 03:15:49;;;;;;;;;39.50;39.00;;;;;6.33;47.28;99453.16;5047250;28;8861;-77
2023/03/03 03:18:18;;;;;;;;;44.00;38.75;;;;;6.41;47.03;99450.53;5049967;28;8892;-77
2023/03/03 03:20:47;;;;;;;;;46.00;41.50;;;;;6.16;47.16;99448.03;5064876;28;9512;-78
2023/03/03 03:23:16;;;;;;;;;46.00;39.25;;;;;6.02;47.52;99444.59;5064861;28;8914;-76
2023/03/03 03:25:45;;;;;;;;;36.50;31.00;;;;;5.99;47.63;99449.84;5081734;28;8942;-76
2023/03/03 03:28:23;;;;;;;;;46.25;40.75;;;;;6.04;47.54;99443.75;5081657;28;8932;-78
2023/03/03 03:30:52;;;;;;;;;39.50;35.00;;;;;6.14;47.46;99435.88;5046904;28;8863;-78
2023/03/03 03:33:22;;;;;;;;;38.25;35.25;;;;;6.23;47.08;99444.53;5030443;28;8891;-77
2023/03/03 03:35:54;;;;;;;;;33.25;31.25;;;;;6.38;46.66;99440.06;5055266;28;8974;-79
2023/03/03 03:38:25;;;;;;;;;39.75;38.00;;;;;6.49;46.67;99436.56;5028251;28;8859;-77
2023/03/03 03:40:55;;;;;;;;;36.75;36.25;;;;;6.32;47.26;99438.38;5061085;28;8856;-78
2023/03/03 03:43:26;;;;;;;;;40.75;35.50;;;;;6.38;46.38;99440.06;5027803;28;9013;-77
2023/03/03 03:45:58;;;;;;;;;34.00;32.25;;;;;6.29;46.54;99433.19;5061102;28;8882;-75
2023/03/03 03:48:28;;;;;;;;;41.50;37.00;;;;;6.44;47.08;99430.47;5030756;28;8845;-75
2023/03/03 03:50:58;;;;;;;;;37.50;35.50;;;;;6.55;46.78;99433.03;5013412;28;8861;-77
2023/03/03 03:53:28;;;;;;;;;44.75;41.00;;;;;6.62;46.24;99433.84;5047934;28;8864;-78
2023/03/03 03:55:57;;;;;;;;;43.75;40.25;;;;;6.72;46.45;99430.31;5030245;28;8904;-77
2023/03/03 03:58:27;;;;;;;;;43.75;38.25;;;;;6.53;46.29;99434.78;5031048;28;8848;-76
2023/03/03 04:01:03;;;;;;;;;41.75;38.75;;;;;6.63;46.54;99433.84;5034854;28;9621;-77
2023/03/03 04:03:33;;;;;;;;;29.40;23.80;;;;;6.48;46.00;99434.81;5027796;28;8875;-78
2023/03/03 04:06:05;;;;;;;;;36.00;31.75;;;;;6.15;46.54;99441.06;5047910;28;8860;-78
2023/03/03 04:08:35;;;;;;;;;40.75;38.25;;;;;6.29;46.21;99435.78;4996567;28;8935;-78
2023/03/03 04:11:04;;;;;;;;;37.75;34.25;;;;;6.35;46.01;99422.69;5044301;28;8858;-78
2023/03/03 04:13:34;;;;;;;;;36.25;32.00;;;;;6.52;45.90;99435.66;4993733;28;9006;-77
2023/03/03 04:16:07;;;;;;;;;36.50;34.25;;;;;6.59;46.10;99433.88;5023440;28;8893;-77
2023/03/03 04:18:36;;;;;;;;;35.25;31.75;;;;;6.64;45.28;99432.09;5047218;28;8962;-77
2023/03/03 04:21:05;;;;;;;;;36.75;29.50;;;;;6.65;46.06;99426.00;5048490;28;8976;-79
2023/03/03 04:23:34;;;;;;;;;37.50;34.25;;;;;6.73;45.25;99426.81;5045466;28;8899;-80
2023/03/03 04:26:03;;;;;;;;;65.25;52.25;;;;;6.74;45.76;99422.44;5026854;28;8871;-76
2023/03/03 04:28:34;;;;;;;;;77.25;60.75;;;;;6.80;45.83;99422.41;5041618;28;8841;-78
2023/03/03 04:31:03;;;;;;;;;56.00;45.00;;;;;6.71;45.37;99418.13;5079833;28;9607;-78
2023/03/03 04:33:33;;;;;;;;;47.75;40.00;;;;;6.67;44.87;99426.84;5047079;28;8895;-77
2023/03/03 04:36:04;;;;;;;;;37.25;35.50;;;;;6.68;45.69;99423.34;5063187;28;8845;-76
2023/03/03 04:38:33;;;;;;;;;41.00;38.75;;;;;6.75;45.39;99424.19;5046496;28;8876;-77
2023/03/03 04:41:02;;;;;;;;;34.50;33.00;;;;;6.77;45.79;99417.19;5062695;28;8835;-77
2023/03/03 04:43:36;;;;;;;;;45.75;36.75;;;;;6.69;45.82;99418.13;5048348;28;8997;-77
2023/03/03 04:46:06;;;;;;;;;51.00;42.75;;;;;6.77;45.56;99428.50;5048558;28;8859;-76
2023/03/03 04:48:37;;;;;;;;;68.75;53.50;;;;;6.84;46.36;99424.97;5064967;28;8868;-79
2023/03/03 04:51:06;;;;;;;;;66.00;51.75;;;;;6.94;45.64;99410.13;5032003;28;8852;-79
2023/03/03 04:53:37;;;;;;;;;41.00;39.00;;;;;6.95;45.78;99422.31;5081799;28;8891;-79
2023/03/03 04:56:08;;;;;;;;;55.75;45.25;;;;;6.55;46.47;99432.16;5033275;28;8855;-78
2023/03/03 04:58:39;;;;;;;;;48.50;41.00;;;;;6.73;45.97;99432.03;5081171;28;8852;-75
2023/03/03 05:01:07;;;;;;;;;45.50;39.75;;;;;6.28;46.56;99439.25;5032471;28;8902;-77
2023/03/03 05:03:36;;;;;;;;;49.50;43.00;;;;;5.47;49.40;99435.19;5048483;28;8885;-77
2023/03/03 05:06:06;;;;;;;;;46.75;36.75;;;;;5.61;49.00;99441.25;5015590;28;8824;-77
2023/03/03 05:08:34;;;;;;;;;40.00;33.25;;;;;5.29;50.01;99447.38;5047711;28;8872;-77
2023/03/03 05:11:04;;;;;;;;;45.00;41.25;;;;;5.66;49.38;99446.44;5030976;28;8856;-78
2023/03/03 05:13:32;;;;;;;;;49.25;43.25;;;;;5.64;48.91;99449.09;5043932;28;8956;-77
2023/03/03 05:16:03;;;;;;;;;50.00;42.00;;;;;5.86;48.55;99444.66;5053702;28;8872;-76
2023/03/03 05:18:31;;;;;;;;;68.50;55.00;;;;;6.08;48.48;99449.81;5044746;28;8953;-78
2023/03/03 05:21:00;;;;;;;;;75.75;57.50;;;;;5.83;49.08;99456.84;5047292;28;8858;-76
2023/03/03 05:23:30;;;;;;;;;67.25;55.25;;;;;5.69;49.57;99459.50;5047333;28;8865;-77
2023/03/03 05:25:59;;;;;;;;;58.50;49.50;;;;;5.95;48.96;99455.97;5047560;28;8868;-79
2023/03/03 05:28:27;;;;;;;;;50.25;41.75;;;;;6.15;48.77;99458.47;5048744;28;8995;-79
2023/03/03 05:30:56;;;;;;;;;49.75;40.50;;;;;6.32;47.44;99454.94;5043615;28;8855;-77
2023/03/03 05:33:26;;;;;;;;;54.00;46.25;;;;;6.48;47.56;99460.06;5045398;28;8852;-77
2023/03/03 05:35:56;;;;;;;;;46.75;39.75;;;;;6.66;47.73;99459.06;5016834;28;8869;-76
2023/03/03 05:38:25;;;;;;;;;50.75;41.75;;;;;6.76;46.67;99459.88;5050275;28;8911;-76
2023/03/03 05:40:55;;;;;;;;;46.50;41.25;;;;;6.87;46.39;99460.66;5051125;28;8845;-79
2023/03/03 05:43:23;;;;;;;;;44.50;39.50;;;;;6.95;46.21;99458.06;5083304;28;8887;-76
2023/03/03 05:45:55;;;;;;;;;40.00;36.75;;;;;7.03;46.22;99464.06;5049818;28;8848;-77
2023/03/03 05:48:25;;;;;;;;;46.50;41.75;;;;;7.00;46.43;99459.75;5030767;28;8938;-77
2023/03/03 05:50:54;;;;;;;;;49.75;42.00;;;;;7.06;45.85;99464.94;5049306;28;8999;-78
2023/03/03 05:53:23;;;;;;;;;43.50;39.75;;;;;7.15;45.56;99460.50;5049709;28;8837;-79
2023/03/03 05:55:52;;;;;;;;;47.50;41.75;;;;;7.21;45.69;99458.72;5050017;28;8908;-78
2023/03/03 05:58:20;;;;;;;;;55.25;43.25;;;;;7.27;45.47;99460.41;5051131;28;8865;-76
2023/03/03 06:00:49;;;;;;;;;50.25;41.25;;;;;7.29;45.46;99458.63;4999747;28;8969;-78
2023/03/03 06:03:18;;;;;;;;;53.75;44.25;;;;;7.35;45.15;99463.81;5050545;28;8895;-79
2023/03/03 06:05:48;;;;;;;;;59.00;46.75;;;;;7.41;45.11;99470.72;5042520;28;8863;-76
2023/03/03 06:08:17;;;;;;;;;60.50;46.50;;;;;7.42;44.91;99475.94;5029592;28;9009;-76
2023/03/03 06:10:46;;;;;;;;;52.50;43.50;;;;;7.48;44.88;99465.41;5045325;28;8869;-77
2023/03/03 06:13:15;;;;;;;;;48.25;39.00;;;;;7.55;45.45;99473.19;5049299;28;8876;-78
2023/03/03 06:15:44;;;;;;;;;55.00;44.75;;;;;7.57;45.19;99469.72;5050477;28;8883;-77
2023/03/03 06:18:13;;;;;;;;;47.00;42.00;;;;;7.61;44.68;99460.09;5050379;28;9015;-77
2023/03/03 06:20:42;;;;;;;;;62.25;48.25;;;;;7.66;45.17;99460.88;5049378;28;8896;-77
2023/03/03 06:23:15;;;;;;;;;55.25;46.00;;;;;7.68;44.81;99461.72;5036322;28;8868;-79
2023/03/03 06:25:44;;;;;;;;;65.50;51.75;;;;;7.67;44.60;99468.72;5028888;28;9637;-79
2023/03/03 06:28:13;;;;;;;;;62.00;50.50;;;;;7.71;44.88;99463.47;5026460;28;8869;-77
2023/03/03 06:30:42;;;;;;;;;61.00;49.00;;;;;7.62;44.65;99452.19;5050811;28;8853;-78
2023/03/03 06:33:11;;;;;;;;;54.75;43.75;;;;;7.62;44.43;99453.94;5049785;28;8841;-77
2023/03/03 06:35:40;;;;;;;;;55.25;45.25;;;;;7.67;44.79;99457.41;5048893;28;8895;-78
2023/03/03 06:38:09;;;;;;;;;56.00;45.50;;;;;7.71;43.98;99460.84;5048698;28;8899;-78
2023/03/03 06:40:39;;;;;;;;;58.75;45.75;;;;;7.81;44.00;99455.47;5081071;28;8860;-78
2023/03/03 06:43:09;;;;;;;;;59.00;47.00;;;;;7.81;44.08;99460.72;5048609;28;8969;-77
2023/03/03 06:45:38;;;;;;;;;62.75;51.25;;;;;7.90;43.83;99461.50;5049772;28;8966;-78
2023/03/03 06:48:07;;;;;;;;;55.75;48.00;;;;;7.97;44.25;99456.19;5048369;28;8927;-78
2023/03/03 06:50:38;;;;;;;;;63.00;50.25;;;;;8.04;43.89;99460.47;5049731;28;8930;-76
2023/03/03 06:53:12;;;;;;;;;66.50;48.50;;;;;8.20;43.45;99453.28;5049311;28;8872;-77
2023/03/03 06:55:44;;;;;;;;;64.75;51.50;;;;;8.28;43.80;99458.41;5048295;28;8856;-76
2023/03/03 06:58:15;;;;;;;;;59.00;48.75;;;;;8.26;43.29;99458.44;5031809;28;8841;-78
2023/03/03 07:00:46;;;;;;;;;65.75;53.00;;;;;8.36;43.93;99467.06;5064616;28;8860;-76
2023/03/03 07:03:16;;;;;;;;;61.50;50.75;;;;;8.46;43.30;99459.97;5049146;28;8891;-76
2023/03/03 07:05:45;;;;;;;;;61.50;50.50;;;;;8.41;43.39;99461.78;5049218;28;8849;-78
2023/03/03 07:08:16;;;;;;;;;62.75;49.50;;;;;8.42;43.36;99455.63;5064700;28;9579;-77
2023/03/03 07:10:47;;;;;;;;;62.25;50.50;;;;;8.49;43.19;99462.53;5048136;28;8868;-67
2023/03/03 07:13:22;;;;;;;;;59.25;49.00;;;;;8.69;43.17;99456.16;5045857;28;8868;-69
2023/03/03 07:15:53;;;;;;;;;61.50;48.50;;;;;8.71;43.01;99454.38;5079940;28;8849;-68
2023/03/03 07:18:39;;;;;;;;;61.50;49.75;;;;;9.01;43.07;99463.53;5048367;28;8876;-67
2023/03/03 07:21:17;;;;;;;;;59.50;46.50;;;;;9.03;42.49;99453.88;5052130;28;8841;-71
2023/03/03 07:23:48;;;;;;;;;63.25;50.75;;;;;8.98;42.13;99463.56;5047998;28;8845;-69
2023/03/03 07:26:21;;;;;;;;;57.75;49.00;;;;;9.10;41.99;99455.53;5081399;28;8962;-80
2023/03/03 07:28:54;;;;;;;;;63.25;47.00;;;;;9.23;42.12;99459.66;5080373;28;8880;-79
2023/03/03 07:31:29;;;;;;;;;56.25;45.75;;;;;9.35;41.66;99458.59;5029945;28;8891;-80
2023/03/03 07:34:00;;;;;;;;;57.25;47.50;;;;;9.34;41.24;99456.84;5063748;28;8847;-78
2023/03/03 07:36:31;;;;;;;;;57.50;44.75;;;;;9.21;41.08;99455.31;5047262;28;8876;-78
2023/03/03 07:39:01;;;;;;;;;57.00;47.00;;;;;9.30;41.46;99460.41;5081221;28;8895;-78
2023/03/03 07:41:35;;;;;;;;;52.75;44.25;;;;;9.49;41.24;99457.47;5048845;28;8857;-81
2023/03/03 07:44:06;;;;;;;;;61.50;50.75;;;;;9.41;41.14;99453.22;5053342;28;8993;-81
2023/03/03 07:46:41;;;;;;;;;56.50;45.75;;;;;9.51;40.73;99455.69;5056866;28;8872;-81
2023/03/03 07:49:22;;;;;;;;;62.25;49.50;;;;;9.59;40.93;99445.94;5048172;28;8868;-79
2023/03/03 07:51:56;;;;;;;;;57.75;48.00;;;;;9.49;40.61;99446.97;5030294;28;8855;-77
2023/03/03 07:54:30;;;;;;;;;65.75;53.00;;;;;9.55;41.17;99447.72;5054517;28;8872;-78
2023/03/03 07:57:12;;;;;;;;;68.75;56.00;;;;;9.72;41.16;99449.19;5062197;28;8952;-80
2023/03/03 07:59:47;;;;;;;;;70.50;55.75;;;;;9.78;40.59;99449.06;5048848;28;8883;-79
2023/03/03 08:02:35;;;;;;;;;66.75;53.00;;;;;9.94;40.57;99440.00;5043793;28;8864;-80
2023/03/03 08:05:27;;;;;;;;;64.25;52.75;;;;;9.73;40.69;99451.81;5030898;28;8986;-81
2023/03/03 08:08:16;;;;;;;;;70.75;55.00;;;;;9.69;40.80;99455.38;5066818;28;9674;-79
2023/03/03 08:10:48;;;;;;;;;70.25;56.50;;;;;9.71;40.73;99455.38;4966796;28;8852;-79
2023/03/03 08:13:20;;;;;;;;;77.00;61.67;;;;;9.66;41.02;99457.19;4967391;28;8898;-79
2023/03/03 08:15:52;;;;;;;;;80.33;63.00;;;;;9.49;40.97;99460.97;4951044;28;8987;-78
2023/03/03 08:18:28;;;;;;;;;80.33;62.67;;;;;9.43;41.36;99459.31;4951403;28;9207;-78
2023/03/03 08:20:58;;;;;;;;;77.00;60.67;;;;;9.54;41.20;99455.63;4937766;28;9123;-78
2023/03/03 08:23:27;;;;;;;;;69.00;56.00;;;;;9.53;41.10;99457.38;4954570;28;9040;-79
2023/03/03 08:25:56;;;;;;;;;76.25;60.75;;;;;9.58;41.03;99454.72;4986316;28;8904;-77
2023/03/03 08:28:26;;;;;;;;;76.67;61.00;;;;;9.63;41.22;99452.88;4986257;28;8978;-78
2023/03/03 08:30:55;;;;;;;;;73.50;59.00;;;;;9.79;41.02;99461.31;4953592;28;9109;-75
2023/03/03 08:33:44;;;;;;;;;75.00;57.75;;;;;9.82;40.80;99458.66;4961495;28;8864;-75
2023/03/03 08:36:14;;;;;;;;;74.75;60.25;;;;;9.93;40.99;99461.94;4985514;28;8888;-76
2023/03/03 08:38:43;;;;;;;;;74.75;59.75;;;;;9.91;41.02;99461.06;4964684;28;8884;-76
2023/03/03 08:41:12;;;;;;;;;76.00;60.25;;;;;9.99;40.83;99455.69;4984865;28;8872;-78
2023/03/03 08:43:44;;;;;;;;;73.50;57.00;;;;;9.95;40.98;99451.38;4949568;28;8845;-76
2023/03/03 08:46:12;;;;;;;;;71.50;57.50;;;;;10.03;40.70;99457.34;4963958;28;8876;-75
2023/03/03 08:48:42;;;;;;;;;68.75;54.50;;;;;9.99;40.15;99450.44;5008882;28;8887;-77
2023/03/03 08:51:11;;;;;;;;;72.50;58.00;;;;;10.07;40.92;99450.28;5060624;28;8871;-77
2023/03/03 08:53:40;;;;;;;;;75.25;57.75;;;;;10.20;40.37;99454.38;5064581;28;8879;-76
2023/03/03 08:56:09;;;;;;;;;77.25;57.00;;;;;10.33;40.18;99453.22;5047160;28;8863;-76
2023/03/03 08:58:40;;;;;;;;;68.00;56.50;;;;;10.46;40.00;99450.31;5015231;28;8890;-78
2023/03/03 09:01:28;;;;;;;;;73.50;59.50;;;;;10.54;39.76;99441.38;4987818;28;8909;-77
2023/03/03 09:03:57;;;;;;;;;77.00;61.25;;;;;10.65;39.72;99448.13;4972313;28;8890;-76
2023/03/03 09:06:26;;;;;;;;;68.75;56.75;;;;;10.70;39.40;99446.28;5018830;28;8852;-78
2023/03/03 09:08:55;;;;;;;;;71.75;59.00;;;;;10.73;39.21;99451.47;5024190;28;8922;-79
2023/03/03 09:11:26;;;;;;;;;72.50;55.00;;;;;10.83;39.15;99450.38;5024988;28;8856;-76
2023/03/03 09:14:02;;;;;;;;;72.25;56.75;;;;;10.90;38.96;99451.13;5025155;28;8876;-76
2023/03/03 09:16:38;;;;;;;;;71.25;54.25;;;;;11.11;38.45;99452.34;5005258;28;8854;-76
2023/03/03 09:19:26;;;;;;;;;75.50;58.25;;;;;11.18;38.17;99453.91;5004112;28;9600;-76
2023/03/03 09:21:57;;;;;;;;;72.75;57.25;;;;;11.09;38.13;99454.16;4969507;28;8892;-80
2023/03/03 09:24:29;;;;;;;;;71.00;55.00;;;;;11.14;37.67;99461.03;4986394;28;8908;-76
2023/03/03 09:26:59;;;;;;;;;66.25;53.50;;;;;11.24;38.05;99456.41;4954820;28;10311;-76
2023/03/03 09:29:30;;;;;;;;;69.25;54.00;;;;;11.44;37.98;99449.75;4948200;28;8922;-76
2023/03/03 09:32:07;;;;;;;;;73.75;58.50;;;;;11.53;37.93;99454.78;4959639;28;8859;-75
2023/03/03 09:34:41;;;;;;;;;70.75;55.00;;;;;11.63;37.41;99453.63;4989758;28;8862;-76
2023/03/03 09:37:22;;;;;;;;;70.75;56.25;;;;;11.86;37.27;99450.44;4988334;28;8878;-76
2023/03/03 09:39:52;;;;;;;;;70.50;56.00;;;;;11.87;37.37;99448.66;5006099;28;9792;-74
2023/03/03 09:42:49;;;;;;;;;73.50;57.50;;;;;12.20;37.26;99448.56;5005718;28;8887;-76
2023/03/03 09:45:50;;;;;;;;;70.25;56.50;;;;;12.20;36.98;99445.94;5006128;28;8879;-78
2023/03/03 09:48:50;;;;;;;;;74.50;57.75;;;;;11.10;37.74;99458.50;4925938;29;9021;-75
2023/03/03 09:51:59;;;;;;;;;73.25;57.00;;;;;10.97;38.38;99456.19;4858919;29;8871;-76
2023/03/03 09:54:43;;;;;;;;;74.50;57.50;;;;;11.14;39.04;99454.88;4905768;29;8913;-77
2023/03/03 09:57:16;;;;;;;;;70.25;55.75;;;;;11.10;39.16;99451.47;4890313;29;9610;-75
2023/03/03 10:00:04;;;;;;;;;73.00;56.50;;;;;11.56;38.41;99452.94;4874198;29;8860;-75
2023/03/03 10:02:54;;;;;;;;;73.00;57.00;;;;;11.93;37.42;99446.69;4889951;29;8901;-76
2023/03/03 10:05:44;;;;;;;;;74.00;58.00;;;;;12.17;36.87;99457.44;4890308;29;8884;-75
2023/03/03 10:08:28;;;;;;;;;68.00;52.00;;;;;12.29;36.79;99451.81;4898445;29;8891;-78
2023/03/03 10:11:09;;;;;;;;;72.25;54.75;;;;;12.20;36.23;99452.09;4924626;29;9112;-77
2023/03/03 10:14:05;;;;;;;;;72.75;59.25;;;;;12.55;36.41;99450.16;4925752;29;8891;-78
2023/03/03 10:17:00;;;;;;;;;71.25;55.75;;;;;12.31;36.06;99449.13;4910482;29;8993;-74
2023/03/03 10:19:37;;;;;;;;;71.25;56.75;;;;;12.42;36.09;99443.53;4895674;29;8867;-74
2023/03/03 10:22:19;;;;;;;;;72.50;56.75;;;;;12.70;36.49;99446.19;4895394;29;8902;-74
2023/03/03 10:25:03;;;;;;;;;64.50;53.00;;;;;12.73;35.56;99448.72;4945429;28;8999;-75
2023/03/03 10:27:47;;;;;;;;;70.50;54.00;;;;;12.65;35.86;99443.69;4967525;28;8903;-76
2023/03/03 10:30:28;;;;;;;;;63.50;53.00;;;;;12.84;35.82;99441.34;5048931;28;8856;-75
2023/03/03 10:33:21;;;;;;;;;68.00;55.00;;;;;13.05;35.66;99446.84;5048064;28;8892;-74
2023/03/03 10:36:21;;;;;;;;;69.00;55.00;;;;;12.55;35.04;99442.25;5050226;28;8888;-74
2023/03/03 10:39:03;;;;;;;;;70.75;56.25;;;;;11.93;36.61;99433.50;5048179;28;8870;-72
2023/03/03 10:41:49;;;;;;;;;64.00;52.00;;;;;11.20;38.20;99438.97;5048141;28;8887;-74
2023/03/03 10:44:47;;;;;;;;;64.75;53.25;;;;;11.80;37.99;99432.09;5047994;28;8864;-77
2023/03/03 10:47:32;;;;;;;;;67.50;54.00;;;;;12.13;36.36;99421.56;5049139;28;8849;-76
2023/03/03 10:50:14;;;;;;;;;65.25;51.75;;;;;12.07;37.22;99422.59;5047966;28;8857;-74
2023/03/03 10:52:49;;;;;;;;;72.00;56.75;;;;;12.23;36.72;99423.00;5049353;28;8861;-75
2023/03/03 10:55:31;;;;;;;;;70.50;57.50;;;;;12.28;36.37;99426.38;5031433;28;8865;-73
2023/03/03 10:58:14;;;;;;;;;70.00;54.75;;;;;12.41;35.70;99418.97;5048827;28;8841;-75
2023/03/03 11:00:50;;;;;;;;;66.00;53.25;;;;;12.51;35.92;99414.25;5031734;28;8849;-74
2023/03/03 11:04:01;;;;;;;;;71.25;56.75;;;;;12.83;35.88;99420.31;5081215;28;8841;-73
2023/03/03 11:06:40;;;;;;;;;71.25;56.00;;;;;12.85;35.13;99411.44;5039829;28;8844;-73
2023/03/03 11:09:21;;;;;;;;;70.50;54.50;;;;;12.99;35.32;99410.97;5047786;28;8879;-73
2023/03/03 11:11:58;;;;;;;;;65.00;51.25;;;;;13.15;34.95;99411.34;5013851;28;8876;-75
2023/03/03 11:14:33;;;;;;;;;66.75;52.00;;;;;13.09;35.01;99408.91;5081208;28;8841;-76
2023/03/03 11:17:11;;;;;;;;;65.25;52.75;;;;;13.19;34.75;99398.91;5047166;28;8891;-75
2023/03/03 11:19:52;;;;;;;;;64.25;53.00;;;;;12.78;34.57;99403.75;5064611;28;8841;-74
2023/03/03 11:22:33;;;;;;;;;68.25;52.75;;;;;12.48;35.98;99402.03;5048193;28;8861;-73
2023/03/03 11:25:21;;;;;;;;;66.00;53.25;;;;;12.76;35.55;99398.53;5028487;28;8860;-74
2023/03/03 11:28:08;;;;;;;;;65.75;54.00;;;;;12.81;35.45;99396.59;5011352;28;8860;-73
2023/03/03 11:30:50;;;;;;;;;70.50;56.00;;;;;12.43;35.99;99400.44;4961311;28;8840;-75
2023/03/03 11:33:27;;;;;;;;;65.00;53.00;;;;;12.64;35.41;99399.78;5043015;28;9617;-74
2023/03/03 11:36:16;;;;;;;;;63.00;49.75;;;;;12.84;35.33;99395.63;5009957;28;8872;-73
2023/03/03 11:38:54;;;;;;;;;63.25;52.00;;;;;12.92;35.27;99388.38;5009085;28;9641;-77
2023/03/03 11:41:34;;;;;;;;;57.00;49.00;;;;;13.09;35.11;99385.13;5042819;28;8953;-73
2023/03/03 11:44:16;;;;;;;;;67.50;53.00;;;;;13.31;34.61;99382.63;5025938;28;8898;-75
2023/03/03 11:46:48;;;;;;;;;67.25;53.25;;;;;13.39;34.57;99387.66;4977003;28;8852;-73
2023/03/03 11:49:23;;;;;;;;;66.00;51.50;;;;;13.51;34.42;99380.16;5025246;28;8895;-73
2023/03/03 11:52:02;;;;;;;;;68.00;54.50;;;;;13.59;33.92;99377.25;5009133;28;8848;-74
2023/03/03 11:54:41;;;;;;;;;69.75;54.50;;;;;13.63;34.07;99375.34;5025616;28;8899;-77
2023/03/03 11:57:20;;;;;;;;;66.50;53.00;;;;;13.76;33.93;99366.06;5008765;28;8899;-74
2023/03/03 12:00:03;;;;;;;;;54.50;44.50;;;;;13.80;33.91;99372.97;5056198;28;9617;-76
2023/03/03 12:03:04;;;;;;;;;63.75;52.50;;;;;13.81;33.82;99376.47;5017030;28;8859;-73
2023/03/03 12:05:47;;;;;;;;;62.75;50.25;;;;;13.89;33.68;99377.94;4970166;28;8873;-74